createdAt,value
2018-04-14T00:00:21.801Z,9.62
2018-04-14T00:01:21.857Z,9.68
2018-04-14T00:02:21.916Z,9.58
2018-04-14T00:03:21.972Z,9.67
2018-04-14T00:04:22.090Z,9.68
2018-04-14T00:05:22.096Z,9.63
2018-04-14T00:06:22.146Z,9.49
2018-04-14T00:07:22.203Z,9.32
2018-04-14T00:08:22.260Z,9.35
2018-04-14T00:09:22.321Z,9.24
2018-04-14T00:10:22.376Z,9.30
2018-04-14T00:11:22.433Z,9.34
2018-04-14T00:12:22.492Z,9.27
2018-04-14T00:13:22.549Z,9.22
2018-04-14T00:14:22.608Z,9.27
2018-04-14T00:15:22.664Z,9.13
2018-04-14T00:16:22.724Z,9.19
2018-04-14T00:17:22.779Z,9.06
2018-04-14T00:18:22.839Z,9.26
2018-04-14T00:19:22.893Z,9.27
2018-04-14T00:20:22.951Z,9.27
2018-04-14T00:21:23.009Z,9.31
2018-04-14T00:22:23.072Z,9.40
2018-04-14T00:23:23.123Z,9.35
2018-04-14T00:24:23.185Z,9.37
2018-04-14T00:25:23.241Z,9.27
2018-04-14T00:26:23.297Z,9.44
2018-04-14T00:27:23.354Z,9.45
2018-04-14T00:28:23.413Z,9.42
2018-04-14T00:29:23.471Z,9.41
2018-04-14T00:30:23.527Z,9.37
2018-04-14T00:31:23.584Z,9.27
2018-04-14T00:32:23.643Z,9.27
2018-04-14T00:33:23.699Z,9.27
2018-04-14T00:34:23.758Z,9.04
2018-04-14T00:35:23.814Z,9.26
2018-04-14T00:36:23.872Z,9.27
2018-04-14T00:37:23.933Z,9.24
2018-04-14T00:38:23.987Z,9.32
2018-04-14T00:39:24.045Z,9.32
2018-04-14T00:40:24.103Z,9.27
2018-04-14T00:41:24.159Z,9.26
2018-04-14T00:42:24.218Z,9.30
2018-04-14T00:43:24.272Z,9.17
2018-04-14T00:44:24.330Z,9.16
2018-04-14T00:45:24.389Z,9.16
2018-04-14T00:46:24.447Z,9.15
2018-04-14T00:47:24.503Z,9.03
2018-04-14T00:48:24.561Z,9.00
2018-04-14T00:49:24.818Z,9.08
2018-04-14T00:50:24.678Z,9.03
2018-04-14T00:51:24.733Z,8.97
2018-04-14T00:52:24.790Z,8.96
2018-04-14T00:53:24.848Z,8.88
2018-04-14T00:54:24.906Z,8.93
2018-04-14T00:55:24.962Z,8.73
2018-04-14T00:56:25.025Z,8.65
2018-04-14T00:57:25.078Z,8.60
2018-04-14T00:58:25.137Z,8.57
2018-04-14T00:59:25.222Z,8.70
2018-04-14T01:00:25.249Z,8.75
2018-04-14T01:01:25.306Z,8.79
2018-04-14T01:02:25.366Z,8.88
2018-04-14T01:03:25.427Z,8.89
2018-04-14T01:04:25.516Z,8.83
2018-04-14T01:05:25.537Z,8.85
2018-04-14T01:06:25.594Z,8.75
2018-04-14T01:07:25.650Z,8.68
2018-04-14T01:08:25.708Z,8.70
2018-04-14T01:09:25.766Z,8.76
2018-04-14T01:10:25.823Z,8.76
2018-04-14T01:11:25.881Z,8.75
2018-04-14T01:12:25.938Z,8.71
2018-04-14T01:13:25.996Z,8.64
2018-04-14T01:14:26.053Z,8.64
2018-04-14T01:15:26.109Z,8.68
2018-04-14T01:16:26.166Z,8.68
2018-04-14T01:17:26.225Z,8.64
2018-04-14T01:18:26.282Z,8.52
2018-04-14T01:19:26.339Z,8.57
2018-04-14T01:20:26.396Z,8.50
2018-04-14T01:21:26.453Z,8.55
2018-04-14T01:22:26.512Z,8.39
2018-04-14T01:23:26.568Z,8.37
2018-04-14T01:24:26.624Z,8.40
2018-04-14T01:25:26.682Z,8.47
2018-04-14T01:26:26.738Z,8.39
2018-04-14T01:27:26.797Z,8.50
2018-04-14T01:28:26.853Z,8.46
2018-04-14T01:29:27.063Z,8.43
2018-04-14T01:30:26.970Z,8.29
2018-04-14T01:31:27.024Z,8.36
2018-04-14T01:32:27.112Z,8.29
2018-04-14T01:33:27.138Z,8.27
2018-04-14T01:34:27.196Z,8.34
2018-04-14T01:35:27.251Z,8.28
2018-04-14T01:36:27.308Z,8.32
2018-04-14T01:37:27.367Z,8.34
2018-04-14T01:38:27.423Z,8.21
2018-04-14T01:39:27.479Z,8.14
2018-04-14T01:40:27.536Z,8.27
2018-04-14T01:41:27.594Z,8.20
2018-04-14T01:42:27.650Z,8.18
2018-04-14T01:43:27.706Z,8.18
2018-04-14T01:44:27.763Z,8.18
2018-04-14T01:45:27.822Z,8.14
2018-04-14T01:46:27.878Z,8.12
2018-04-14T01:47:27.937Z,8.24
2018-04-14T01:48:27.991Z,8.18
2018-04-14T01:49:28.049Z,8.12
2018-04-14T01:50:28.106Z,8.12
2018-04-14T01:51:28.162Z,8.07
2018-04-14T01:52:28.218Z,8.18
2018-04-14T01:53:28.280Z,8.14
2018-04-14T01:54:28.965Z,8.14
2018-04-14T01:55:28.389Z,8.21
2018-04-14T01:56:28.445Z,8.18
2018-04-14T01:57:28.504Z,8.18
2018-04-14T01:58:28.561Z,8.10
2018-04-14T01:59:28.616Z,8.07
2018-04-14T02:00:28.675Z,8.04
2018-04-14T02:01:28.730Z,8.10
2018-04-14T02:02:28.789Z,8.09
2018-04-14T02:03:28.842Z,8.17
2018-04-14T02:04:28.900Z,8.06
2018-04-14T02:05:28.958Z,8.03
2018-04-14T02:06:29.014Z,8.07
2018-04-14T02:07:29.070Z,8.09
2018-04-14T02:08:29.127Z,8.12
2018-04-14T02:09:29.185Z,8.04
2018-04-14T02:10:29.241Z,7.95
2018-04-14T02:11:29.298Z,7.86
2018-04-14T02:12:29.355Z,7.77
2018-04-14T02:13:29.411Z,7.85
2018-04-14T02:14:29.467Z,7.66
2018-04-14T02:15:29.523Z,7.71
2018-04-14T02:16:29.580Z,7.74
2018-04-14T02:17:29.637Z,7.70
2018-04-14T02:18:29.697Z,7.70
2018-04-14T02:19:30.136Z,7.69
2018-04-14T02:20:29.808Z,7.66
2018-04-14T02:21:29.865Z,7.82
2018-04-14T02:22:29.924Z,7.66
2018-04-14T02:23:29.977Z,7.81
2018-04-14T02:24:30.035Z,7.82
2018-04-14T02:25:30.091Z,7.82
2018-04-14T02:26:30.148Z,7.79
2018-04-14T02:27:30.204Z,7.82
2018-04-14T02:28:30.262Z,7.82
2018-04-14T02:29:30.318Z,7.85
2018-04-14T02:30:30.375Z,7.70
2018-04-14T02:31:30.431Z,7.57
2018-04-14T02:32:30.487Z,7.51
2018-04-14T02:33:30.544Z,7.32
2018-04-14T02:34:30.600Z,7.39
2018-04-14T02:35:30.676Z,7.47
2018-04-14T02:36:30.713Z,7.48
2018-04-14T02:37:30.771Z,7.48
2018-04-14T02:38:30.826Z,7.54
2018-04-14T02:39:30.883Z,7.58
2018-04-14T02:40:30.940Z,7.58
2018-04-14T02:41:30.997Z,7.58
2018-04-14T02:42:31.057Z,7.57
2018-04-14T02:43:31.109Z,7.52
2018-04-14T02:44:31.165Z,7.57
2018-04-14T02:45:31.224Z,7.66
2018-04-14T02:46:31.278Z,7.77
2018-04-14T02:47:31.335Z,7.58
2018-04-14T02:48:31.391Z,7.60
2018-04-14T02:49:31.448Z,7.55
2018-04-14T02:50:31.504Z,7.52
2018-04-14T02:51:31.560Z,7.62
2018-04-14T02:52:31.619Z,7.67
2018-04-14T02:53:31.674Z,7.67
2018-04-14T02:54:31.730Z,7.63
2018-04-14T02:55:31.792Z,7.57
2018-04-14T02:56:31.846Z,7.55
2018-04-14T02:57:31.900Z,7.51
2018-04-14T02:58:31.957Z,7.44
2018-04-14T02:59:32.013Z,7.41
2018-04-14T03:00:32.069Z,7.48
2018-04-14T03:01:32.127Z,7.45
2018-04-14T03:02:32.183Z,7.39
2018-04-14T03:03:32.238Z,7.42
2018-04-14T03:04:32.296Z,7.29
2018-04-14T03:05:32.352Z,7.19
2018-04-14T03:06:32.409Z,7.21
2018-04-14T03:07:32.464Z,7.21
2018-04-14T03:08:32.520Z,7.18
2018-04-14T03:09:32.577Z,7.15
2018-04-14T03:10:32.633Z,7.27
2018-04-14T03:11:32.691Z,7.27
2018-04-14T03:12:32.745Z,7.19
2018-04-14T03:13:32.803Z,7.21
2018-04-14T03:14:32.858Z,7.30
2018-04-14T03:15:32.914Z,7.15
2018-04-14T03:16:32.985Z,7.21
2018-04-14T03:17:33.027Z,7.14
2018-04-14T03:18:33.083Z,7.16
2018-04-14T03:19:33.141Z,7.19
2018-04-14T03:20:33.195Z,7.11
2018-04-14T03:21:33.253Z,7.09
2018-04-14T03:22:33.308Z,7.12
2018-04-14T03:23:33.364Z,7.12
2018-04-14T03:24:33.420Z,7.08
2018-04-14T03:25:33.477Z,7.04
2018-04-14T03:26:33.535Z,7.07
2018-04-14T03:27:33.589Z,7.09
2018-04-14T03:28:33.646Z,7.09
2018-04-14T03:29:33.709Z,7.08
2018-04-14T03:30:33.759Z,7.08
2018-04-14T03:31:33.813Z,7.01
2018-04-14T03:32:33.871Z,7.07
2018-04-14T03:33:33.927Z,6.91
2018-04-14T03:34:33.983Z,6.82
2018-04-14T03:35:34.038Z,6.82
2018-04-14T03:36:34.095Z,6.76
2018-04-14T03:37:34.152Z,6.90
2018-04-14T03:38:34.208Z,6.87
2018-04-14T03:39:34.264Z,6.86
2018-04-14T03:40:34.320Z,6.81
2018-04-14T03:41:34.375Z,6.69
2018-04-14T03:42:34.433Z,6.72
2018-04-14T03:43:34.488Z,6.73
2018-04-14T03:44:34.544Z,6.71
2018-04-14T03:45:34.602Z,6.71
2018-04-14T03:46:34.656Z,6.71
2018-04-14T03:47:34.711Z,6.75
2018-04-14T03:48:34.768Z,6.78
2018-04-14T03:49:34.825Z,6.76
2018-04-14T03:50:34.881Z,6.73
2018-04-14T03:51:34.935Z,6.75
2018-04-14T03:52:34.993Z,6.82
2018-04-14T03:53:35.061Z,6.69
2018-04-14T03:54:35.120Z,6.72
2018-04-14T03:55:35.164Z,6.71
2018-04-14T03:56:35.225Z,6.71
2018-04-14T03:57:35.292Z,6.68
2018-04-14T03:58:35.350Z,6.69
2018-04-14T03:59:35.403Z,6.71
2018-04-14T04:00:35.465Z,6.64
2018-04-14T04:01:35.502Z,6.68
2018-04-14T04:02:35.553Z,6.72
2018-04-14T04:03:35.608Z,6.72
2018-04-14T04:04:35.667Z,6.75
2018-04-14T04:05:35.722Z,6.79
2018-04-14T04:06:35.781Z,6.71
2018-04-14T04:07:35.834Z,6.71
2018-04-14T04:08:35.888Z,6.71
2018-04-14T04:09:35.944Z,6.63
2018-04-14T04:10:36.002Z,6.51
2018-04-14T04:11:36.056Z,6.57
2018-04-14T04:12:36.118Z,6.57
2018-04-14T04:13:36.168Z,6.53
2018-04-14T04:14:36.476Z,6.55
2018-04-14T04:15:36.289Z,6.71
2018-04-14T04:16:36.337Z,6.71
2018-04-14T04:17:36.393Z,6.65
2018-04-14T04:18:36.448Z,6.57
2018-04-14T04:19:36.506Z,6.48
2018-04-14T04:20:36.564Z,6.53
2018-04-14T04:21:36.615Z,6.55
2018-04-14T04:22:36.671Z,6.55
2018-04-14T04:23:36.726Z,6.55
2018-04-14T04:24:36.783Z,6.65
2018-04-14T04:25:36.839Z,6.65
2018-04-14T04:26:37.433Z,6.55
2018-04-14T04:27:36.950Z,6.58
2018-04-14T04:28:37.010Z,6.64
2018-04-14T04:29:37.064Z,6.75
2018-04-14T04:30:37.120Z,6.65
2018-04-14T04:31:37.174Z,6.65
2018-04-14T04:32:37.231Z,6.55
2018-04-14T04:33:37.287Z,6.57
2018-04-14T04:34:37.342Z,6.53
2018-04-14T04:35:37.399Z,6.53
2018-04-14T04:36:37.455Z,6.55
2018-04-14T04:37:37.762Z,6.55
2018-04-14T04:38:37.566Z,6.60
2018-04-14T04:39:37.623Z,6.51
2018-04-14T04:40:37.684Z,6.55
2018-04-14T04:41:37.733Z,6.57
2018-04-14T04:42:37.794Z,6.50
2018-04-14T04:43:37.846Z,6.54
2018-04-14T04:44:37.902Z,6.51
2018-04-14T04:45:37.959Z,6.43
2018-04-14T04:46:38.013Z,6.40
2018-04-14T04:47:38.071Z,6.46
2018-04-14T04:48:38.129Z,6.46
2018-04-14T04:49:38.181Z,6.38
2018-04-14T04:50:38.236Z,6.46
2018-04-14T04:51:38.293Z,6.35
2018-04-14T04:52:38.350Z,6.35
2018-04-14T04:53:38.408Z,6.39
2018-04-14T04:54:38.461Z,6.36
2018-04-14T04:55:38.515Z,6.30
2018-04-14T04:56:38.571Z,6.36
2018-04-14T04:57:38.627Z,6.27
2018-04-14T04:58:38.683Z,6.11
2018-04-14T04:59:38.739Z,6.21
2018-04-14T05:00:38.794Z,6.20
2018-04-14T05:01:38.851Z,6.27
2018-04-14T05:02:38.908Z,6.38
2018-04-14T05:03:38.960Z,6.36
2018-04-14T05:04:39.017Z,6.43
2018-04-14T05:05:39.074Z,6.39
2018-04-14T05:06:39.135Z,6.33
2018-04-14T05:07:39.184Z,6.40
2018-04-14T05:08:39.241Z,6.40
2018-04-14T05:09:39.295Z,6.33
2018-04-14T05:10:39.353Z,6.30
2018-04-14T05:11:39.407Z,6.35
2018-04-14T05:12:39.464Z,6.27
2018-04-14T05:13:39.519Z,6.35
2018-04-14T05:14:39.575Z,6.21
2018-04-14T05:15:39.630Z,6.30
2018-04-14T05:16:39.687Z,6.33
2018-04-14T05:17:39.745Z,6.40
2018-04-14T05:18:39.799Z,6.38
2018-04-14T05:19:39.855Z,6.36
2018-04-14T05:20:39.910Z,6.30
2018-04-14T05:21:39.966Z,6.36
2018-04-14T05:22:40.022Z,6.40
2018-04-14T05:23:40.078Z,6.39
2018-04-14T05:24:40.132Z,6.35
2018-04-14T05:25:40.194Z,6.43
2018-04-14T05:26:40.246Z,6.40
2018-04-14T05:27:40.300Z,6.33
2018-04-14T05:28:40.356Z,6.38
2018-04-14T05:29:40.413Z,6.27
2018-04-14T05:30:40.468Z,6.38
2018-04-14T05:31:40.524Z,6.36
2018-04-14T05:32:40.579Z,6.33
2018-04-14T05:33:40.634Z,6.32
2018-04-14T05:34:40.691Z,6.25
2018-04-14T05:35:40.746Z,6.27
2018-04-14T05:36:40.813Z,6.33
2018-04-14T05:37:40.859Z,6.35
2018-04-14T05:38:40.921Z,6.38
2018-04-14T05:39:40.972Z,6.39
2018-04-14T05:40:41.349Z,6.25
2018-04-14T05:41:41.407Z,6.35
2018-04-14T05:42:41.141Z,6.33
2018-04-14T05:43:41.194Z,6.43
2018-04-14T05:44:41.249Z,6.42
2018-04-14T05:45:41.306Z,6.48
2018-04-14T05:46:41.364Z,6.46
2018-04-14T05:47:41.417Z,6.53
2018-04-14T05:48:41.474Z,6.69
2018-04-14T05:49:41.534Z,6.64
2018-04-14T05:50:41.588Z,6.65
2018-04-14T05:51:41.642Z,6.71
2018-04-14T05:52:41.698Z,6.78
2018-04-14T05:53:41.753Z,6.76
2018-04-14T05:54:41.819Z,6.82
2018-04-14T05:55:41.866Z,6.78
2018-04-14T05:56:41.922Z,6.90
2018-04-14T05:57:41.977Z,6.91
2018-04-14T05:58:42.035Z,6.96
2018-04-14T05:59:42.090Z,6.96
2018-04-14T06:00:42.149Z,6.89
2018-04-14T06:01:42.202Z,6.97
2018-04-14T06:02:42.258Z,6.91
2018-04-14T06:03:42.315Z,6.91
2018-04-14T06:04:42.373Z,7.11
2018-04-14T06:05:42.428Z,7.15
2018-04-14T06:06:42.485Z,7.07
2018-04-14T06:07:42.540Z,7.16
2018-04-14T06:08:42.597Z,7.15
2018-04-14T06:09:42.653Z,7.19
2018-04-14T06:10:42.710Z,7.23
2018-04-14T06:11:42.766Z,7.21
2018-04-14T06:12:42.821Z,7.29
2018-04-14T06:13:42.877Z,7.27
2018-04-14T06:14:42.937Z,7.26
2018-04-14T06:15:42.990Z,7.23
2018-04-14T06:16:43.047Z,7.21
2018-04-14T06:17:43.106Z,7.07
2018-04-14T06:18:43.162Z,7.09
2018-04-14T06:19:43.216Z,7.05
2018-04-14T06:20:43.273Z,7.16
2018-04-14T06:21:43.330Z,7.18
2018-04-14T06:22:43.386Z,7.19
2018-04-14T06:23:43.442Z,7.39
2018-04-14T06:24:43.499Z,7.37
2018-04-14T06:25:43.555Z,7.42
2018-04-14T06:26:43.613Z,7.50
2018-04-14T06:27:43.668Z,7.57
2018-04-14T06:28:43.729Z,7.54
2018-04-14T06:29:43.782Z,7.52
2018-04-14T06:30:43.838Z,7.50
2018-04-14T06:31:43.895Z,7.52
2018-04-14T06:32:43.954Z,7.52
2018-04-14T06:33:44.018Z,7.55
2018-04-14T06:34:44.066Z,7.66
2018-04-14T06:35:44.122Z,7.63
2018-04-14T06:36:44.177Z,7.70
2018-04-14T06:37:44.237Z,7.66
2018-04-14T06:38:44.293Z,7.69
2018-04-14T06:39:44.971Z,7.70
2018-04-14T06:40:44.405Z,7.66
2018-04-14T06:41:44.464Z,7.81
2018-04-14T06:42:44.519Z,7.81
2018-04-14T06:43:44.576Z,7.82
2018-04-14T06:44:44.634Z,7.85
2018-04-14T06:45:44.696Z,7.88
2018-04-14T06:46:44.748Z,7.95
2018-04-14T06:47:44.805Z,7.99
2018-04-14T06:48:44.863Z,8.03
2018-04-14T06:49:44.918Z,8.03
2018-04-14T06:50:44.976Z,8.07
2018-04-14T06:51:45.034Z,8.07
2018-04-14T06:52:45.090Z,8.12
2018-04-14T06:53:45.148Z,8.18
2018-04-14T06:54:45.206Z,8.10
2018-04-14T06:55:45.263Z,8.24
2018-04-14T06:56:45.321Z,8.22
2018-04-14T06:57:45.377Z,8.21
2018-04-14T06:58:45.436Z,8.18
2018-04-14T06:59:45.491Z,8.10
2018-04-14T07:00:45.572Z,8.20
2018-04-14T07:01:45.606Z,8.21
2018-04-14T07:02:45.665Z,8.22
2018-04-14T07:03:45.721Z,8.22
2018-04-14T07:04:45.779Z,8.29
2018-04-14T07:05:45.837Z,8.31
2018-04-14T07:06:45.895Z,8.31
2018-04-14T07:07:45.950Z,8.34
2018-04-14T07:08:46.010Z,8.40
2018-04-14T07:09:46.068Z,8.39
2018-04-14T07:10:46.126Z,8.43
2018-04-14T07:11:46.181Z,8.43
2018-04-14T07:12:46.243Z,8.50
2018-04-14T07:13:46.298Z,8.54
2018-04-14T07:14:46.356Z,8.57
2018-04-14T07:15:46.417Z,8.71
2018-04-14T07:16:46.471Z,8.70
2018-04-14T07:17:46.536Z,8.73
2018-04-14T07:18:46.588Z,8.76
2018-04-14T07:19:46.644Z,8.93
2018-04-14T07:20:46.747Z,8.93
2018-04-14T07:21:46.762Z,8.98
2018-04-14T07:22:46.819Z,8.98
2018-04-14T07:23:46.878Z,9.06
2018-04-14T07:24:46.935Z,9.12
2018-04-14T07:25:46.994Z,9.16
2018-04-14T07:26:47.109Z,9.22
2018-04-14T07:27:47.109Z,9.30
2018-04-14T07:28:47.169Z,9.22
2018-04-14T07:29:47.229Z,9.37
2018-04-14T07:30:47.285Z,9.40
2018-04-14T07:31:47.343Z,9.37
2018-04-14T07:32:47.403Z,9.50
2018-04-14T07:33:47.462Z,9.50
2018-04-14T07:34:47.519Z,9.52
2018-04-14T07:35:47.576Z,9.70
2018-04-14T07:36:47.634Z,9.70
2018-04-14T07:37:47.693Z,9.81
2018-04-14T07:38:47.751Z,9.83
2018-04-14T07:39:47.810Z,9.98
2018-04-14T07:40:47.867Z,10.04
2018-04-14T07:41:47.928Z,10.07
2018-04-14T07:42:47.989Z,10.06
2018-04-14T07:43:48.043Z,10.13
2018-04-14T07:44:48.102Z,10.20
2018-04-14T07:45:48.162Z,10.24
2018-04-14T07:46:48.221Z,10.36
2018-04-14T07:47:48.278Z,10.32
2018-04-14T07:48:48.337Z,10.42
2018-04-14T07:49:48.395Z,10.46
2018-04-14T07:50:48.454Z,10.54
2018-04-14T07:51:48.514Z,10.57
2018-04-14T07:52:48.573Z,10.44
2018-04-14T07:53:48.630Z,10.46
2018-04-14T07:54:48.689Z,10.60
2018-04-14T07:55:48.747Z,10.55
2018-04-14T07:56:48.807Z,10.63
2018-04-14T07:57:48.867Z,10.69
2018-04-14T07:58:48.925Z,10.80
2018-04-14T07:59:48.987Z,10.84
2018-04-14T08:00:49.042Z,10.87
2018-04-14T08:01:49.103Z,10.84
2018-04-14T08:02:49.161Z,10.83
2018-04-14T08:03:49.220Z,10.94
2018-04-14T08:04:49.278Z,10.94
2018-04-14T08:05:49.340Z,11.02
2018-04-14T08:06:49.396Z,11.11
2018-04-14T08:07:49.456Z,11.12
2018-04-14T08:08:49.516Z,11.13
2018-04-14T08:09:49.576Z,11.17
2018-04-14T08:10:49.634Z,11.16
2018-04-14T08:11:49.697Z,11.16
2018-04-14T08:12:49.753Z,11.17
2018-04-14T08:13:49.815Z,11.27
2018-04-14T08:14:49.872Z,11.30
2018-04-14T08:15:49.932Z,11.41
2018-04-14T08:16:49.992Z,11.39
2018-04-14T08:17:50.051Z,11.51
2018-04-14T08:18:50.109Z,11.46
2018-04-14T08:19:50.168Z,11.49
2018-04-14T08:20:50.229Z,11.63
2018-04-14T08:21:50.290Z,11.77
2018-04-14T08:22:50.348Z,11.84
2018-04-14T08:23:50.407Z,11.98
2018-04-14T08:24:50.473Z,12.13
2018-04-14T08:25:50.527Z,12.05
2018-04-14T08:26:50.590Z,12.01
2018-04-14T08:27:50.647Z,12.23
2018-04-14T08:28:50.713Z,12.23
2018-04-14T08:29:50.768Z,12.29
2018-04-14T08:30:50.830Z,12.41
2018-04-14T08:31:50.886Z,12.61
2018-04-14T08:32:50.948Z,12.69
2018-04-14T08:33:51.011Z,12.67
2018-04-14T08:34:51.069Z,12.81
2018-04-14T08:35:51.127Z,12.87
2018-04-14T08:36:51.191Z,12.99
2018-04-14T08:37:51.251Z,13.06
2018-04-14T08:38:51.332Z,13.09
2018-04-14T08:39:51.368Z,13.27
2018-04-14T08:40:51.466Z,13.32
2018-04-14T08:41:51.489Z,13.41
2018-04-14T08:42:51.555Z,13.41
2018-04-14T08:43:51.616Z,13.51
2018-04-14T08:44:51.675Z,13.69
2018-04-14T08:45:51.731Z,13.75
2018-04-14T08:46:51.792Z,13.73
2018-04-14T08:47:51.851Z,13.80
2018-04-14T08:48:51.916Z,13.87
2018-04-14T08:49:51.973Z,13.90
2018-04-14T08:50:52.034Z,14.01
2018-04-14T08:51:52.093Z,13.96
2018-04-14T08:52:52.156Z,14.02
2018-04-14T08:53:52.230Z,14.12
2018-04-14T08:54:52.278Z,14.21
2018-04-14T08:55:52.337Z,14.34
2018-04-14T08:56:52.397Z,14.38
2018-04-14T08:57:52.459Z,14.53
2018-04-14T08:58:52.521Z,14.61
2018-04-14T08:59:52.581Z,14.64
2018-04-14T09:00:52.642Z,14.69
2018-04-14T09:01:52.719Z,14.86
2018-04-14T09:02:53.315Z,14.94
2018-04-14T09:03:52.826Z,15.09
2018-04-14T09:04:52.886Z,15.30
2018-04-14T09:05:52.948Z,15.37
2018-04-14T09:06:53.010Z,15.52
2018-04-14T09:07:53.071Z,15.66
2018-04-14T09:08:53.132Z,15.71
2018-04-14T09:09:53.193Z,15.77
2018-04-14T09:10:53.256Z,15.88
2018-04-14T09:11:53.319Z,16.03
2018-04-14T09:12:53.380Z,16.04
2018-04-14T09:13:53.441Z,16.22
2018-04-14T09:14:53.503Z,16.37
2018-04-14T09:15:53.563Z,16.69
2018-04-14T09:16:53.625Z,16.82
2018-04-14T09:17:53.688Z,17.14
2018-04-14T09:18:53.750Z,17.27
2018-04-14T09:19:53.813Z,17.27
2018-04-14T09:20:53.871Z,17.36
2018-04-14T09:21:53.934Z,17.51
2018-04-14T09:22:53.997Z,17.51
2018-04-14T09:23:54.059Z,17.47
2018-04-14T09:24:54.121Z,17.33
2018-04-14T09:25:54.186Z,17.57
2018-04-14T09:26:54.246Z,17.77
2018-04-14T09:27:54.306Z,17.81
2018-04-14T09:28:54.368Z,17.63
2018-04-14T09:29:54.432Z,17.60
2018-04-14T09:30:54.553Z,17.54
2018-04-14T09:31:54.555Z,17.55
2018-04-14T09:32:54.619Z,17.62
2018-04-14T09:33:54.679Z,17.77
2018-04-14T09:34:54.744Z,17.87
2018-04-14T09:35:54.803Z,17.86
2018-04-14T09:36:54.867Z,17.76
2018-04-14T09:37:54.930Z,17.87
2018-04-14T09:38:54.993Z,17.95
2018-04-14T09:39:55.054Z,18.02
2018-04-14T09:40:55.117Z,18.16
2018-04-14T09:41:55.179Z,18.29
2018-04-14T09:42:55.257Z,18.31
2018-04-14T09:43:55.304Z,18.21
2018-04-14T09:44:55.366Z,18.25
2018-04-14T09:45:55.430Z,18.11
2018-04-14T09:46:55.493Z,17.87
2018-04-14T09:47:55.554Z,17.83
2018-04-14T09:48:55.618Z,17.92
2018-04-14T09:49:55.679Z,18.04
2018-04-14T09:50:55.744Z,18.11
2018-04-14T09:51:55.806Z,18.25
2018-04-14T09:52:55.870Z,18.31
2018-04-14T09:53:55.930Z,18.49
2018-04-14T09:54:55.993Z,18.72
2018-04-14T09:55:56.060Z,18.82
2018-04-14T09:56:56.119Z,18.78
2018-04-14T09:57:56.181Z,19.06
2018-04-14T09:58:56.245Z,19.13
2018-04-14T09:59:56.306Z,19.13
2018-04-14T10:00:56.370Z,18.94
2018-04-14T10:01:56.682Z,18.83
2018-04-14T10:02:56.525Z,18.94
2018-04-14T10:03:56.558Z,18.90
2018-04-14T10:04:56.621Z,19.01
2018-04-14T10:05:56.684Z,19.16
2018-04-14T10:06:56.748Z,19.23
2018-04-14T10:07:56.813Z,19.32
2018-04-14T10:08:56.874Z,19.30
2018-04-14T10:09:56.939Z,19.42
2018-04-14T10:10:57.001Z,19.45
2018-04-14T10:11:57.084Z,19.65
2018-04-14T10:12:57.126Z,19.80
2018-04-14T10:13:57.189Z,19.79
2018-04-14T10:14:57.295Z,19.89
2018-04-14T10:15:57.320Z,19.85
2018-04-14T10:16:57.380Z,19.87
2018-04-14T10:17:57.444Z,20.05
2018-04-14T10:18:57.511Z,20.01
2018-04-14T10:19:57.572Z,20.17
2018-04-14T10:20:57.635Z,20.15
2018-04-14T10:21:57.697Z,19.94
2018-04-14T10:22:57.760Z,20.01
2018-04-14T10:23:57.823Z,20.10
2018-04-14T10:24:57.886Z,20.15
2018-04-14T10:25:57.952Z,20.16
2018-04-14T10:26:58.015Z,20.15
2018-04-14T10:27:58.079Z,20.30
2018-04-14T10:28:58.143Z,20.31
2018-04-14T10:29:58.206Z,20.40
2018-04-14T10:30:58.269Z,20.38
2018-04-14T10:31:58.333Z,20.35
2018-04-14T10:32:58.397Z,20.35
2018-04-14T10:33:58.462Z,20.34
2018-04-14T10:34:58.526Z,20.30
2018-04-14T10:35:58.590Z,20.56
2018-04-14T10:36:58.655Z,20.61
2018-04-14T10:37:58.860Z,20.87
2018-04-14T10:38:58.785Z,21.06
2018-04-14T10:39:58.850Z,21.24
2018-04-14T10:40:58.916Z,21.45
2018-04-14T10:41:58.981Z,21.15
2018-04-14T10:42:59.056Z,20.91
2018-04-14T10:43:59.367Z,21.08
2018-04-14T10:44:59.181Z,21.21
2018-04-14T10:45:59.250Z,21.28
2018-04-14T10:46:59.317Z,21.68
2018-04-14T10:47:59.385Z,22.14
2018-04-14T10:48:59.458Z,22.59
2018-04-14T10:49:59.522Z,22.89
2018-04-14T10:50:59.592Z,23.21
2018-04-14T10:51:59.661Z,23.18
2018-04-14T10:52:59.729Z,23.62
2018-04-14T10:53:59.799Z,22.91
2018-04-14T10:54:59.869Z,22.76
2018-04-14T10:55:59.940Z,23.15
2018-04-14T10:57:00.007Z,23.23
2018-04-14T10:58:00.078Z,23.67
2018-04-14T10:59:00.152Z,24.29
2018-04-14T11:00:00.218Z,24.83
2018-04-14T11:01:00.289Z,24.86
2018-04-14T11:02:00.360Z,24.86
2018-04-14T11:03:00.431Z,25.05
2018-04-14T11:04:00.502Z,24.86
2018-04-14T11:05:00.575Z,24.44
2018-04-14T11:06:00.649Z,24.64
2018-04-14T11:07:00.718Z,24.08
2018-04-14T11:08:00.788Z,24.33
2018-04-14T11:09:00.861Z,24.51
2018-04-14T11:10:00.933Z,24.46
2018-04-14T11:11:01.012Z,24.49
2018-04-14T11:12:01.328Z,24.41
2018-04-14T11:13:01.151Z,24.99
2018-04-14T11:14:01.223Z,24.45
2018-04-14T11:15:01.295Z,24.87
2018-04-14T11:16:01.367Z,24.86
2018-04-14T11:17:01.439Z,24.34
2018-04-14T11:18:01.512Z,24.27
2018-04-14T11:19:01.585Z,24.70
2018-04-14T11:20:01.657Z,24.59
2018-04-14T11:21:01.731Z,25.29
2018-04-14T11:22:01.805Z,25.66
2018-04-14T11:23:01.878Z,24.87
2018-04-14T11:24:01.950Z,24.30
2018-04-14T11:25:02.025Z,24.33
2018-04-14T11:26:02.101Z,23.16
2018-04-14T11:27:02.168Z,23.37
2018-04-14T11:28:02.247Z,24.02
2018-04-14T11:29:02.314Z,24.64
2018-04-14T11:30:02.389Z,25.26
2018-04-14T11:31:02.462Z,24.61
2018-04-14T11:32:02.532Z,24.41
2018-04-14T11:33:02.607Z,24.75
2018-04-14T11:34:02.681Z,25.24
2018-04-14T11:35:02.752Z,25.61
2018-04-14T11:36:02.824Z,25.44
2018-04-14T11:37:02.899Z,25.69
2018-04-14T11:38:02.970Z,26.06
2018-04-14T11:39:03.045Z,26.39
2018-04-14T11:40:03.119Z,26.08
2018-04-14T11:41:03.190Z,25.83
2018-04-14T11:42:03.264Z,25.24
2018-04-14T11:43:03.340Z,24.29
2018-04-14T11:44:03.409Z,24.14
2018-04-14T11:45:03.482Z,24.02
2018-04-14T11:46:03.554Z,24.39
2018-04-14T11:47:03.628Z,24.63
2018-04-14T11:48:03.701Z,24.80
2018-04-14T11:49:03.774Z,24.92
2018-04-14T11:50:03.847Z,25.11
2018-04-14T11:51:03.920Z,24.94
2018-04-14T11:52:03.991Z,25.75
2018-04-14T11:53:04.064Z,25.61
2018-04-14T11:54:04.138Z,24.45
2018-04-14T11:55:04.211Z,24.90
2018-04-14T11:56:04.282Z,24.26
2018-04-14T11:57:04.606Z,24.26
2018-04-14T11:58:04.430Z,23.90
2018-04-14T11:59:04.501Z,24.29
2018-04-14T12:00:04.573Z,25.24
2018-04-14T12:01:04.647Z,25.41
2018-04-14T12:02:04.721Z,25.85
2018-04-14T12:03:04.793Z,24.45
2018-04-14T12:04:04.865Z,24.53
2018-04-14T12:05:04.939Z,25.54
2018-04-14T12:06:05.013Z,25.96
2018-04-14T12:07:05.085Z,26.57
2018-04-14T12:08:05.157Z,25.94
2018-04-14T12:09:05.229Z,25.89
2018-04-14T12:10:05.303Z,24.94
2018-04-14T12:11:05.377Z,23.63
2018-04-14T12:12:05.449Z,24.70
2018-04-14T12:13:05.520Z,25.20
2018-04-14T12:14:05.597Z,24.92
2018-04-14T12:15:05.670Z,25.35
2018-04-14T12:16:05.743Z,25.97
2018-04-14T12:17:05.820Z,25.38
2018-04-14T12:18:05.884Z,25.12
2018-04-14T12:19:05.962Z,25.63
2018-04-14T12:20:06.035Z,25.36
2018-04-14T12:21:06.107Z,26.13
2018-04-14T12:22:06.178Z,26.57
2018-04-14T12:23:06.250Z,26.31
2018-04-14T12:24:06.320Z,26.57
2018-04-14T12:25:06.395Z,26.11
2018-04-14T12:26:06.470Z,25.72
2018-04-14T12:27:06.541Z,25.76
2018-04-14T12:28:06.612Z,26.08
2018-04-14T12:29:06.686Z,26.06
2018-04-14T12:30:06.758Z,25.75
2018-04-14T12:31:06.833Z,25.61
2018-04-14T12:32:06.905Z,25.39
2018-04-14T12:33:06.978Z,25.53
2018-04-14T12:34:07.051Z,24.33
2018-04-14T12:35:07.124Z,24.16
2018-04-14T12:36:07.197Z,24.08
2018-04-14T12:37:07.270Z,22.72
2018-04-14T12:38:07.343Z,22.60
2018-04-14T12:39:07.416Z,22.60
2018-04-14T12:40:07.487Z,22.86
2018-04-14T12:41:07.558Z,23.89
2018-04-14T12:42:07.631Z,23.57
2018-04-14T12:43:07.703Z,24.29
2018-04-14T12:44:07.773Z,24.86
2018-04-14T12:45:07.844Z,25.41
2018-04-14T12:46:07.913Z,25.66
2018-04-14T12:47:07.986Z,26.19
2018-04-14T12:48:08.056Z,24.94
2018-04-14T12:49:08.128Z,25.59
2018-04-14T12:50:08.199Z,25.05
2018-04-14T12:51:08.270Z,24.53
2018-04-14T12:52:08.343Z,25.19
2018-04-14T12:53:08.666Z,25.53
2018-04-14T12:54:08.484Z,24.48
2018-04-14T12:55:08.556Z,23.74
2018-04-14T12:56:08.624Z,23.32
2018-04-14T12:57:08.696Z,23.00
2018-04-14T12:58:08.769Z,22.97
2018-04-14T12:59:08.838Z,22.88
2018-04-14T13:00:08.909Z,22.64
2018-04-14T13:01:08.980Z,22.70
2018-04-14T13:02:09.051Z,22.72
2018-04-14T13:03:09.120Z,22.57
2018-04-14T13:04:09.190Z,22.81
2018-04-14T13:05:09.260Z,22.74
2018-04-14T13:06:09.329Z,22.93
2018-04-14T13:07:09.399Z,22.60
2018-04-14T13:08:09.468Z,22.59